Chart 1
 

(A maximum of 50 rows are displayed here. Use "Export Data" to see all rows in the date range.)
Date Collected Temp WindChill
(Celcius)
WindSpeed
(km/hr)
Gust
(km/hr)
Wind Direction
(degrees)
2022-08-10 19:00 14.7 13.1 5 16 348
2022-08-10 18:00 15.3 13.8 4 14 359
2022-08-10 17:00 15.2 12.9 6 18 343
2022-08-10 16:00 15.5 13.5 5 16 336
2022-08-10 15:00 16.3 12.9 7 25 345
2022-08-10 14:00 16.8 13.9 7 20 21
2022-08-10 13:00 16.3 12.9 7 19 3
2022-08-10 12:00 15.8 13.2 6 16 19
2022-08-10 11:00 15.2 12.1 7 15 16
2022-08-10 10:00 12.1 9.1 5 16 31
2022-08-10 09:00 8.4 6.5 4 8 61
2022-08-10 08:00 6.5 4.1 5 9 57
2022-08-10 07:00 5.5 3.3 4 8 44
2022-08-10 06:00 4.4 1.4 5 10 56
2022-08-10 05:00 4.0 1.2 5 11 48
2022-08-10 04:00 4.0 1.4 5 10 56
2022-08-10 03:00 3.5 1.1 5 11 56
2022-08-10 02:00 4.0 1.8 4 9 50
2022-08-10 01:00 4.2 1.8 5 10 51
2022-08-10 00:00 4.6 3.1 4 8 49
2022-08-09 23:00 5.0 4.3 3 6 52
2022-08-09 22:00 5.2 5.1 2 6 43
2022-08-09 21:00 5.7 5.8 2 5 36
2022-08-09 20:00 6.7 6.7 1 3 18
2022-08-09 19:00 8.1 8.4 0 1 293
2022-08-09 18:00 10.6 10.7 1 3 207
2022-08-09 17:00 12.5 12.2 3 7 210
2022-08-09 16:00 14.2 14.2 0 0 217
2022-08-09 15:00 14.7 13.9 4 10 201
2022-08-09 14:00 15.3 13.9 4 11 201
2022-08-09 13:00 15.1 14.0 4 10 195
2022-08-09 12:00 14.7 14.0 3 11 196
2022-08-09 11:00 14.9 13.4 4 10 227
2022-08-09 10:00 12.4 12.2 2 5 210
2022-08-09 09:00 8.6 8.3 1 3 40
2022-08-09 08:00 6.4 6.2 2 5 39
2022-08-09 07:00 5.2 5.1 2 5 42
2022-08-09 06:00 4.7 4.8 1 4 43
2022-08-09 05:00 5.3 5.3 1 3 48
2022-08-09 04:00 4.8 4.6 2 3 43
2022-08-09 03:00 4.6 4.7 1 3 63
2022-08-09 02:00 5.0 5.0 2 5 35
2022-08-09 01:00 5.3 5.3 2 5 40
2022-08-09 00:00 5.6 5.6 1 2 37
2022-08-08 23:00 6.1 6.2 1 3 59
2022-08-08 22:00 6.3 6.3 1 3 41
2022-08-08 21:00 6.7 6.7 0 1 319
2022-08-08 20:00 7.8 7.9 1 3 47
2022-08-08 19:00 9.5 9.7 0 1 57
2022-08-08 18:00 11.4 11.7 1 3 236